createdAt,value
2022-10-19T00:02:25.444Z,9.73
2022-10-19T00:04:52.327Z,5.18
2022-10-19T00:07:19.116Z,3.05
2022-10-19T00:09:46.069Z,1.75
2022-10-19T00:12:13.305Z,1.80
2022-10-19T00:14:40.081Z,1.40
2022-10-19T00:17:06.846Z,1.00
2022-10-19T00:19:33.997Z,1.80
2022-10-19T00:22:00.779Z,1.13
2022-10-19T00:24:27.712Z,0.88
2022-10-19T00:26:54.502Z,1.10
2022-10-19T00:29:21.314Z,1.02
2022-10-19T00:31:50.065Z,1.15
2022-10-19T00:34:17.160Z,1.70
2022-10-19T00:36:44.093Z,1.08
2022-10-19T00:39:12.438Z,1.13
2022-10-19T00:41:39.362Z,1.17
2022-10-19T00:44:11.931Z,0.93
2022-10-19T00:46:40.330Z,1.02
2022-10-19T00:49:14.038Z,1.27
2022-10-19T00:51:43.941Z,1.00
2022-10-19T00:54:10.829Z,2.08
2022-10-19T00:56:39.476Z,0.98
2022-10-19T00:59:06.267Z,1.17
2022-10-19T01:01:33.433Z,1.10
2022-10-19T01:04:00.819Z,1.10
2022-10-19T01:06:27.787Z,0.80
2022-10-19T01:08:54.587Z,1.50
2022-10-19T01:11:30.251Z,1.08
2022-10-19T01:14:27.664Z,1.27
2022-10-19T01:17:17.222Z,1.13
2022-10-19T01:20:21.489Z,1.10
2022-10-19T01:23:13.468Z,1.67
2022-10-19T01:25:49.095Z,0.80
2022-10-19T01:28:37.850Z,1.10
2022-10-19T01:31:06.372Z,1.08
2022-10-19T01:34:10.841Z,1.00
2022-10-19T01:39:19.306Z,2.20
2022-10-19T01:41:55.853Z,1.17
2022-10-19T01:44:27.134Z,0.93
2022-10-19T01:47:08.975Z,1.60
2022-10-19T01:49:38.940Z,0.88
2022-10-19T01:52:06.963Z,1.58
2022-10-19T01:54:42.684Z,1.42
2022-10-19T01:57:09.666Z,1.00
2022-10-19T01:59:36.737Z,1.02
2022-10-19T02:02:05.187Z,1.45
2022-10-19T02:04:31.970Z,1.20
2022-10-19T02:06:58.751Z,1.73
2022-10-19T02:09:25.676Z,0.93
2022-10-19T02:11:57.406Z,1.05
2022-10-19T02:14:27.145Z,1.10
2022-10-19T02:16:59.822Z,0.95
2022-10-19T02:19:26.630Z,0.60
2022-10-19T02:21:53.533Z,1.10
2022-10-19T02:24:20.363Z,0.85
2022-10-19T02:26:47.183Z,0.82
2022-10-19T02:29:14.229Z,0.75
2022-10-19T02:31:41.207Z,0.77
2022-10-19T02:34:08.010Z,0.57
2022-10-19T02:36:34.962Z,1.75
2022-10-19T02:39:01.842Z,1.15
2022-10-19T02:41:42.103Z,0.70
2022-10-19T02:44:23.257Z,0.90
2022-10-19T02:47:24.507Z,0.70
2022-10-19T02:49:51.303Z,0.50
2022-10-19T02:52:21.279Z,0.75
2022-10-19T02:54:48.111Z,0.70
2022-10-19T02:57:19.711Z,0.60
2022-10-19T02:59:46.601Z,1.25
2022-10-19T03:02:14.326Z,0.63
2022-10-19T03:04:44.798Z,0.80
2022-10-19T03:07:16.453Z,0.80
2022-10-19T03:09:49.698Z,0.70
2022-10-19T03:12:16.565Z,1.23
2022-10-19T03:14:43.470Z,0.77
2022-10-19T03:17:10.363Z,0.70
2022-10-19T03:19:37.358Z,0.93
2022-10-19T03:22:06.637Z,0.77
2022-10-19T03:24:35.736Z,0.63
2022-10-19T03:27:02.824Z,0.90
2022-10-19T03:29:29.651Z,0.90
2022-10-19T03:31:56.477Z,1.30
2022-10-19T03:34:33.039Z,1.52
2022-10-19T03:41:28.635Z,4.68
2022-10-19T03:43:55.904Z,6.03
2022-10-19T03:46:22.864Z,5.30
2022-10-19T03:48:52.499Z,5.00
2022-10-19T03:51:29.790Z,5.67
2022-10-19T03:54:02.490Z,4.20
2022-10-19T03:56:32.414Z,4.43
2022-10-19T03:59:03.654Z,4.28
2022-10-19T04:01:35.457Z,4.13
2022-10-19T04:04:10.060Z,3.72
2022-10-19T04:06:41.245Z,3.20
2022-10-19T04:09:08.451Z,3.30
2022-10-19T04:11:44.479Z,3.50
2022-10-19T04:14:22.849Z,3.70
2022-10-19T04:17:02.901Z,2.90
2022-10-19T04:19:29.745Z,2.05
2022-10-19T04:21:56.550Z,1.67
2022-10-19T04:24:23.434Z,2.00
2022-10-19T04:26:51.556Z,1.33
2022-10-19T04:29:20.076Z,2.00
2022-10-19T04:31:49.352Z,1.88
2022-10-19T04:34:16.315Z,1.92
2022-10-19T04:36:43.116Z,1.42
2022-10-19T04:39:10.001Z,1.35
2022-10-19T04:41:37.534Z,1.92
2022-10-19T04:44:04.825Z,1.30
2022-10-19T04:46:31.710Z,1.50
2022-10-19T04:48:58.946Z,1.50
2022-10-19T04:51:26.007Z,1.20
2022-10-19T04:53:55.628Z,3.00
2022-10-19T04:56:28.879Z,1.45
2022-10-19T04:58:57.466Z,1.73
2022-10-19T05:01:25.207Z,2.03
2022-10-19T05:06:24.199Z,1.50
2022-10-19T05:08:51.248Z,1.25
2022-10-19T05:11:18.362Z,2.00
2022-10-19T05:13:45.319Z,1.50
2022-10-19T05:16:14.296Z,2.10
2022-10-19T05:18:41.177Z,2.00
2022-10-19T05:21:12.136Z,2.30
2022-10-19T05:23:41.596Z,2.17
2022-10-19T05:26:10.181Z,3.80
2022-10-19T05:28:37.539Z,1.90
2022-10-19T05:31:08.161Z,2.75
2022-10-19T05:33:35.091Z,1.80
2022-10-19T05:36:20.898Z,2.75
2022-10-19T05:38:49.080Z,3.03
2022-10-19T05:41:16.439Z,2.47
2022-10-19T05:43:43.399Z,2.20
2022-10-19T05:46:11.917Z,1.92
2022-10-19T05:48:42.036Z,2.13
2022-10-19T05:51:10.480Z,2.22
2022-10-19T05:56:11.466Z,1.65
2022-10-19T05:58:38.310Z,3.13
2022-10-19T06:01:05.288Z,2.72
2022-10-19T06:03:32.111Z,2.35
2022-10-19T06:05:59.010Z,1.80
2022-10-19T06:08:25.857Z,1.67
2022-10-19T06:10:52.912Z,1.58
2022-10-19T06:13:19.797Z,2.00
2022-10-19T06:15:50.397Z,2.40
2022-10-19T06:18:17.187Z,2.17
2022-10-19T06:20:43.962Z,3.28
2022-10-19T06:23:10.787Z,2.83
2022-10-19T06:25:37.555Z,2.17
2022-10-19T06:28:07.287Z,2.17
2022-10-19T06:30:34.154Z,3.28
2022-10-19T06:33:00.995Z,2.13
2022-10-19T06:35:29.665Z,3.90
2022-10-19T06:37:57.580Z,2.58
2022-10-19T06:40:25.345Z,2.67
2022-10-19T06:42:52.231Z,2.60
2022-10-19T06:45:19.813Z,2.65
2022-10-19T06:50:14.610Z,2.30
2022-10-19T06:52:41.593Z,2.90
2022-10-19T06:55:08.818Z,2.55
2022-10-19T06:57:36.025Z,2.42
2022-10-19T07:00:03.933Z,2.22
2022-10-19T07:02:30.926Z,2.00
2022-10-19T07:04:57.946Z,2.42
2022-10-19T07:07:25.118Z,2.08
2022-10-19T07:09:53.479Z,2.08
2022-10-19T07:12:20.287Z,1.60
2022-10-19T07:14:47.895Z,2.08
2022-10-19T07:17:14.973Z,2.70
2022-10-19T07:19:41.821Z,3.03
2022-10-19T07:22:08.632Z,1.67
2022-10-19T07:24:35.966Z,2.63
2022-10-19T07:27:03.379Z,1.52
2022-10-19T07:29:30.336Z,1.45
2022-10-19T07:31:57.284Z,1.27
2022-10-19T07:34:26.760Z,1.30
2022-10-19T07:36:55.829Z,1.63
2022-10-19T07:39:23.034Z,1.90
2022-10-19T07:41:49.879Z,1.20
2022-10-19T07:44:16.928Z,1.70
2022-10-19T07:46:44.180Z,1.60
2022-10-19T07:49:16.457Z,1.27
2022-10-19T07:51:43.592Z,1.42
2022-10-19T07:54:10.550Z,2.47
2022-10-19T07:56:37.499Z,1.80
2022-10-19T07:59:05.381Z,2.17
2022-10-19T08:01:34.112Z,1.85
2022-10-19T08:06:48.187Z,1.33
2022-10-19T08:09:33.319Z,1.50
2022-10-19T08:12:02.267Z,1.70
2022-10-19T08:14:29.216Z,1.80
2022-10-19T08:16:56.163Z,2.42
2022-10-19T08:19:24.227Z,1.63
2022-10-19T08:21:51.216Z,1.80
2022-10-19T08:24:19.536Z,1.77
2022-10-19T08:26:46.723Z,1.77
2022-10-19T08:29:18.575Z,3.13
2022-10-19T08:31:45.930Z,2.40
2022-10-19T08:34:13.339Z,2.22
2022-10-19T08:39:09.112Z,2.00
2022-10-19T08:42:03.364Z,1.88
2022-10-19T08:44:30.243Z,2.60
2022-10-19T08:47:17.589Z,1.65
2022-10-19T08:49:46.869Z,1.83
2022-10-19T08:52:20.368Z,3.92
2022-10-19T08:57:43.477Z,2.60
2022-10-19T09:00:13.175Z,2.80
2022-10-19T09:03:37.607Z,2.45
2022-10-19T09:06:45.626Z,2.00
2022-10-19T09:09:15.978Z,3.05
2022-10-19T09:11:44.695Z,4.60
2022-10-19T09:14:16.945Z,49.20
2022-10-19T09:16:43.922Z,5.63
2022-10-19T09:19:25.878Z,4.28
2022-10-19T09:21:57.944Z,3.60
2022-10-19T09:25:04.748Z,2.17
2022-10-19T09:27:38.212Z,2.63
2022-10-19T09:30:10.897Z,1.92
2022-10-19T09:32:38.758Z,1.85
2022-10-19T09:35:44.612Z,2.45
2022-10-19T09:38:12.329Z,2.78
2022-10-19T09:40:41.688Z,2.35
2022-10-19T09:43:19.713Z,1.60
2022-10-19T09:45:52.509Z,1.75
2022-10-19T09:48:38.224Z,1.92
2022-10-19T09:51:13.520Z,1.98
2022-10-19T09:53:45.363Z,1.52
2022-10-19T09:56:18.715Z,2.00
2022-10-19T09:58:58.311Z,2.33
2022-10-19T10:01:41.822Z,2.30
2022-10-19T10:04:17.690Z,2.75
2022-10-19T10:06:46.786Z,2.67
2022-10-19T10:09:17.869Z,2.72
2022-10-19T10:11:46.480Z,1.50
2022-10-19T10:14:32.908Z,2.40
2022-10-19T10:17:05.193Z,3.10
2022-10-19T10:19:32.820Z,1.70
2022-10-19T10:22:00.190Z,2.28
2022-10-19T10:24:31.259Z,3.28
2022-10-19T10:27:00.050Z,2.42
2022-10-19T10:29:32.730Z,2.40
2022-10-19T10:32:26.094Z,2.40
2022-10-19T10:34:58.548Z,2.47
2022-10-19T10:37:36.209Z,2.55
2022-10-19T10:40:04.795Z,2.22
2022-10-19T10:42:42.033Z,3.05
2022-10-19T10:45:24.789Z,2.88
2022-10-19T10:47:52.073Z,1.93
2022-10-19T10:50:32.632Z,2.03
2022-10-19T10:53:01.361Z,1.90
2022-10-19T10:55:28.914Z,2.00
2022-10-19T10:58:07.656Z,2.40
2022-10-19T11:00:35.605Z,2.60
2022-10-19T11:03:12.270Z,1.92
2022-10-19T11:05:45.341Z,2.50
2022-10-19T11:08:23.963Z,2.13
2022-10-19T11:10:59.911Z,2.97
2022-10-19T11:13:41.423Z,2.30
2022-10-19T11:16:16.711Z,2.30
2022-10-19T11:18:49.038Z,2.30
2022-10-19T11:21:21.808Z,2.55
2022-10-19T11:24:25.706Z,2.50
2022-10-19T11:27:04.535Z,1.85
2022-10-19T11:29:37.565Z,3.75
2022-10-19T11:32:04.624Z,2.70
2022-10-19T11:34:53.094Z,2.55
2022-10-19T11:37:29.386Z,2.22
2022-10-19T11:40:08.532Z,1.92
2022-10-19T11:43:02.733Z,2.25
2022-10-19T11:45:39.021Z,2.22
2022-10-19T11:48:30.892Z,2.13
2022-10-19T11:51:16.841Z,2.33
2022-10-19T11:54:28.101Z,2.25
2022-10-19T11:57:05.533Z,2.67
2022-10-19T11:59:48.853Z,1.98
2022-10-19T12:02:30.807Z,1.65
2022-10-19T12:05:01.723Z,2.08
2022-10-19T12:07:45.132Z,1.95
2022-10-19T12:10:30.951Z,2.72
2022-10-19T12:13:01.113Z,2.20
2022-10-19T12:15:28.488Z,2.47
2022-10-19T12:17:57.481Z,2.65
2022-10-19T12:20:46.155Z,2.00
2022-10-19T12:23:33.076Z,2.58
2022-10-19T12:26:02.023Z,3.22
2022-10-19T12:28:31.545Z,4.93
2022-10-19T12:30:58.977Z,3.78
2022-10-19T12:33:38.232Z,3.25
2022-10-19T12:36:17.221Z,3.65
2022-10-19T12:39:00.630Z,3.00
2022-10-19T12:44:08.964Z,2.33
2022-10-19T12:46:43.089Z,2.67
2022-10-19T12:49:28.769Z,2.58
2022-10-19T12:51:59.167Z,2.40
2022-10-19T12:54:31.458Z,2.40
2022-10-19T12:56:59.446Z,2.33
2022-10-19T12:59:28.941Z,2.72
2022-10-19T13:01:56.985Z,2.60
2022-10-19T13:04:26.215Z,1.98
2022-10-19T13:07:05.495Z,2.22
2022-10-19T13:09:43.171Z,1.90
2022-10-19T13:12:19.720Z,2.45
2022-10-19T13:15:01.688Z,2.13
2022-10-19T13:17:35.036Z,2.72
2022-10-19T13:20:14.471Z,1.73
2022-10-19T13:22:50.982Z,2.13
2022-10-19T13:25:31.487Z,2.28
2022-10-19T13:28:07.637Z,2.25
2022-10-19T13:30:42.067Z,2.10
2022-10-19T13:33:31.341Z,2.05
2022-10-19T13:36:02.277Z,2.05
2022-10-19T13:38:32.650Z,2.40
2022-10-19T13:41:06.874Z,2.33
2022-10-19T13:44:01.907Z,2.15
2022-10-19T13:46:34.662Z,1.63
2022-10-19T13:49:01.553Z,2.53
2022-10-19T13:52:02.507Z,2.20
2022-10-19T13:55:04.138Z,2.50
2022-10-19T13:57:36.950Z,3.25
2022-10-19T14:03:15.292Z,1.88
2022-10-19T14:05:50.974Z,2.10
2022-10-19T14:08:48.968Z,2.70
2022-10-19T14:11:19.033Z,3.40
2022-10-19T14:13:46.441Z,3.35
2022-10-19T14:16:22.448Z,2.20
2022-10-19T14:18:55.802Z,3.63
2022-10-19T14:21:33.721Z,5.20
2022-10-19T14:24:00.686Z,4.25
2022-10-19T14:26:31.714Z,6.25
2022-10-19T14:28:59.742Z,2.88
2022-10-19T14:31:34.264Z,2.17
2022-10-19T14:34:03.128Z,2.35
2022-10-19T14:36:37.814Z,3.03
2022-10-19T14:39:04.924Z,2.88
2022-10-19T14:44:02.902Z,2.85
2022-10-19T14:46:33.747Z,2.05
2022-10-19T14:49:02.475Z,2.70
2022-10-19T14:51:44.296Z,2.35
2022-10-19T14:54:28.929Z,2.97
2022-10-19T14:57:03.235Z,2.97
2022-10-19T14:59:31.423Z,3.00
2022-10-19T15:02:01.081Z,2.67
2022-10-19T15:04:33.819Z,3.05
2022-10-19T15:07:01.900Z,3.33
2022-10-19T15:09:43.712Z,3.20
2022-10-19T15:12:18.151Z,3.55
2022-10-19T15:14:45.279Z,3.55
2022-10-19T15:17:29.406Z,3.08
2022-10-19T15:19:58.447Z,4.32
2022-10-19T15:22:31.398Z,3.20
2022-10-19T15:25:07.053Z,2.90
2022-10-19T15:27:38.532Z,3.58
2022-10-19T15:30:19.605Z,3.63
2022-10-19T15:32:50.838Z,3.70
2022-10-19T15:35:20.675Z,3.42
2022-10-19T15:37:48.937Z,3.70
2022-10-19T15:40:29.620Z,4.25
2022-10-19T15:42:56.448Z,3.35
2022-10-19T15:45:37.340Z,3.30
2022-10-19T15:48:10.361Z,3.55
2022-10-19T15:50:38.822Z,3.83
2022-10-19T15:53:05.631Z,3.60
2022-10-19T15:55:32.523Z,3.60
2022-10-19T15:58:00.136Z,2.75
2022-10-19T16:00:27.078Z,3.78
2022-10-19T16:02:53.945Z,3.40
2022-10-19T16:05:20.706Z,3.80
2022-10-19T16:07:47.538Z,3.45
2022-10-19T16:10:16.780Z,4.70
2022-10-19T16:12:43.747Z,4.10
2022-10-19T16:15:17.364Z,2.95
2022-10-19T16:17:47.183Z,4.53
2022-10-19T16:20:14.149Z,5.72
2022-10-19T16:22:41.056Z,5.10
2022-10-19T16:25:07.960Z,4.00
2022-10-19T16:27:34.943Z,4.07
2022-10-19T16:30:02.811Z,4.20
2022-10-19T16:32:29.689Z,3.55
2022-10-19T16:34:56.528Z,6.20
2022-10-19T16:37:23.404Z,6.38
2022-10-19T16:39:50.338Z,4.43
2022-10-19T16:42:17.176Z,4.90
2022-10-19T16:44:44.398Z,6.40
2022-10-19T16:47:11.209Z,4.55
2022-10-19T16:49:38.004Z,5.65
2022-10-19T16:52:06.136Z,3.80
2022-10-19T16:54:32.981Z,3.85
2022-10-19T16:56:59.849Z,3.35
2022-10-19T16:59:26.666Z,3.70
2022-10-19T17:01:53.897Z,3.65
2022-10-19T17:04:20.979Z,5.15
2022-10-19T17:06:47.807Z,4.10
2022-10-19T17:09:40.257Z,3.53
2022-10-19T17:12:02.000Z,3.50
2022-10-19T17:14:28.909Z,3.42
2022-10-19T17:16:55.739Z,3.22
2022-10-19T17:19:23.213Z,3.95
2022-10-19T17:21:50.089Z,4.28
2022-10-19T17:24:21.668Z,3.28
2022-10-19T17:26:50.425Z,3.80
2022-10-19T17:29:17.376Z,6.05
2022-10-19T17:31:44.195Z,9.05
2022-10-19T17:34:11.070Z,4.07
2022-10-19T17:39:09.126Z,4.40
2022-10-19T17:41:36.086Z,4.57
2022-10-19T17:44:03.658Z,4.85
2022-10-19T17:46:31.615Z,6.45
2022-10-19T17:48:58.612Z,4.65
2022-10-19T17:51:27.492Z,5.22
2022-10-19T17:53:55.454Z,5.32
2022-10-19T17:56:22.468Z,5.22
2022-10-19T17:58:49.450Z,4.95
2022-10-19T18:01:17.384Z,4.75
2022-10-19T18:03:44.233Z,5.38
2022-10-19T18:06:12.994Z,14.07
2022-10-19T18:08:41.377Z,7.40
2022-10-19T18:11:22.390Z,5.95
2022-10-19T18:13:49.549Z,6.47
2022-10-19T18:16:18.420Z,5.25
2022-10-19T18:18:48.533Z,5.43
2022-10-19T18:21:17.369Z,5.65
2022-10-19T18:23:47.775Z,5.47
2022-10-19T18:26:17.065Z,6.25
2022-10-19T18:28:43.951Z,5.40
2022-10-19T18:31:12.880Z,5.90
2022-10-19T18:33:39.916Z,5.90
2022-10-19T18:36:07.982Z,6.15
2022-10-19T18:38:34.922Z,6.45
2022-10-19T18:41:06.494Z,5.60
2022-10-19T18:43:33.382Z,5.72
2022-10-19T18:46:00.839Z,5.95
2022-10-19T18:48:28.832Z,5.30
2022-10-19T18:50:56.340Z,5.78
2022-10-19T18:53:23.274Z,6.78
2022-10-19T18:56:10.885Z,5.78
2022-10-19T18:58:37.822Z,6.28
2022-10-19T19:01:11.576Z,5.65
2022-10-19T19:03:39.501Z,6.10
2022-10-19T19:06:14.314Z,5.97
2022-10-19T19:08:41.325Z,5.90
2022-10-19T19:11:11.961Z,6.45
2022-10-19T19:13:39.158Z,6.60
2022-10-19T19:16:06.519Z,6.18
2022-10-19T19:18:34.163Z,6.68
2022-10-19T19:21:03.071Z,6.38
2022-10-19T19:23:30.186Z,7.38
2022-10-19T19:25:58.577Z,7.88
2022-10-19T19:28:25.576Z,6.65
2022-10-19T19:30:53.721Z,7.55
2022-10-19T19:33:20.777Z,7.97
2022-10-19T19:35:49.221Z,6.80
2022-10-19T19:38:16.580Z,6.45
2022-10-19T19:40:47.353Z,7.20
2022-10-19T19:43:14.782Z,7.40
2022-10-19T19:45:42.040Z,7.10
2022-10-19T19:48:10.218Z,7.75
2022-10-19T19:50:38.940Z,7.70
2022-10-19T19:53:05.927Z,8.40
2022-10-19T19:55:38.860Z,7.35
2022-10-19T19:58:06.114Z,7.75
2022-10-19T20:00:33.042Z,7.32
2022-10-19T20:03:00.031Z,8.30
2022-10-19T20:05:28.492Z,9.45
2022-10-19T20:07:56.458Z,7.32
2022-10-19T20:10:23.396Z,7.65
2022-10-19T20:12:50.304Z,7.47
2022-10-19T20:15:17.673Z,6.88
2022-10-19T20:17:44.913Z,6.97
2022-10-19T20:20:12.334Z,7.82
2022-10-19T20:22:39.197Z,7.10
2022-10-19T20:25:06.571Z,8.35
2022-10-19T20:27:37.001Z,8.38
2022-10-19T20:30:04.559Z,9.25
2022-10-19T20:32:31.442Z,7.28
2022-10-19T20:34:58.284Z,7.22
2022-10-19T20:37:26.043Z,7.57
2022-10-19T20:39:52.866Z,7.78
2022-10-19T20:42:19.711Z,8.60
2022-10-19T20:44:46.573Z,8.32
2022-10-19T20:47:13.410Z,7.05
2022-10-19T20:49:40.918Z,7.65
2022-10-19T20:52:07.829Z,8.15
2022-10-19T20:54:35.760Z,7.68
2022-10-19T20:57:02.665Z,9.65
2022-10-19T20:59:30.419Z,8.52
2022-10-19T21:01:57.854Z,7.38
2022-10-19T21:04:25.950Z,9.48
2022-10-19T21:06:52.784Z,8.35
2022-10-19T21:09:23.326Z,7.95
2022-10-19T21:11:51.534Z,8.18
2022-10-19T21:14:26.994Z,8.00
2022-10-19T21:16:59.043Z,8.68
2022-10-19T21:19:27.038Z,9.27
2022-10-19T21:22:01.509Z,8.50
2022-10-19T21:24:32.100Z,8.85
2022-10-19T21:27:04.754Z,9.15
2022-10-19T21:29:32.589Z,8.45
2022-10-19T21:31:59.491Z,9.05
2022-10-19T21:34:27.596Z,8.80
2022-10-19T21:36:55.074Z,8.02
2022-10-19T21:39:22.135Z,9.38
2022-10-19T21:41:49.056Z,9.63
2022-10-19T21:44:16.438Z,9.30
2022-10-19T21:46:44.143Z,7.93
2022-10-19T21:49:12.978Z,9.20
2022-10-19T21:51:45.091Z,9.65
2022-10-19T21:54:18.520Z,8.20
2022-10-19T21:56:46.365Z,9.75
2022-10-19T21:59:13.483Z,9.32
2022-10-19T22:01:41.494Z,7.55
2022-10-19T22:04:13.109Z,8.10
2022-10-19T22:06:40.080Z,8.48
2022-10-19T22:09:07.529Z,9.80
2022-10-19T22:11:34.416Z,8.65
2022-10-19T22:14:02.136Z,7.50
2022-10-19T22:16:29.266Z,8.07
2022-10-19T22:18:56.504Z,9.55
2022-10-19T22:21:28.206Z,8.70
2022-10-19T22:24:00.546Z,8.45
2022-10-19T22:26:33.770Z,8.32
2022-10-19T22:29:03.195Z,9.13
2022-10-19T22:31:30.498Z,8.02
2022-10-19T22:33:57.467Z,8.95
2022-10-19T22:36:24.350Z,9.02
2022-10-19T22:38:51.239Z,9.10
2022-10-19T22:41:18.126Z,9.48
2022-10-19T22:43:44.943Z,9.45
2022-10-19T22:46:11.771Z,8.45
2022-10-19T22:48:38.662Z,9.57
2022-10-19T22:51:05.586Z,8.85
2022-10-19T22:53:32.457Z,10.23
2022-10-19T22:55:59.317Z,9.73
2022-10-19T22:58:26.177Z,9.40
2022-10-19T23:01:19.487Z,9.27
2022-10-19T23:03:46.440Z,9.55
2022-10-19T23:06:14.061Z,10.40
2022-10-19T23:08:41.007Z,9.63
2022-10-19T23:11:07.886Z,9.63
2022-10-19T23:13:34.731Z,10.25
2022-10-19T23:16:01.573Z,9.93
2022-10-19T23:18:31.853Z,10.23
2022-10-19T23:21:00.463Z,11.05
2022-10-19T23:23:28.377Z,9.82
2022-10-19T23:26:03.637Z,10.25
2022-10-19T23:28:30.788Z,10.15
2022-10-19T23:30:58.631Z,9.75
2022-10-19T23:33:25.890Z,9.25
2022-10-19T23:35:52.836Z,9.43
2022-10-19T23:38:19.692Z,9.05
2022-10-19T23:40:46.589Z,9.40
2022-10-19T23:43:13.480Z,10.68
2022-10-19T23:45:40.354Z,10.75
2022-10-19T23:48:07.282Z,9.38
2022-10-19T23:50:34.140Z,9.52
2022-10-19T23:53:01.002Z,10.15
2022-10-19T23:55:27.888Z,10.15
2022-10-19T23:57:54.752Z,10.32
